sensor_id;sensor_type;location;lat;lon;timestamp;pressure;altitude;pressure_sealevel;temperature;humidity
76434;BME280;65265;53.200;6.080;2023-11-19T00:02:56;100490.09;;;11.39;100.00
76434;BME280;65265;53.200;6.080;2023-11-19T00:07:50;100481.75;;;11.45;100.00
76434;BME280;65265;53.200;6.080;2023-11-19T00:12:46;100480.84;;;11.44;100.00
76434;BME280;65265;53.200;6.080;2023-11-19T00:17:39;100470.66;;;11.46;100.00
76434;BME280;65265;53.200;6.080;2023-11-19T00:22:35;100469.84;;;11.47;100.00
76434;BME280;65265;53.200;6.080;2023-11-19T00:27:28;100455.78;;;11.34;100.00
76434;BME280;65265;53.200;6.080;2023-11-19T00:32:23;100476.50;;;11.42;100.00
76434;BME280;65265;53.200;6.080;2023-11-19T00:37:16;100457.81;;;11.44;100.00
76434;BME280;65265;53.200;6.080;2023-11-19T00:42:09;100458.63;;;11.43;100.00
76434;BME280;65265;53.200;6.080;2023-11-19T00:47:01;100456.16;;;11.46;100.00
76434;BME280;65265;53.200;6.080;2023-11-19T00:51:57;100438.78;;;11.36;100.00
76434;BME280;65265;53.200;6.080;2023-11-19T00:56:50;100444.09;;;11.42;100.00
76434;BME280;65265;53.200;6.080;2023-11-19T01:01:43;100434.91;;;11.49;100.00
76434;BME280;65265;53.200;6.080;2023-11-19T01:06:39;100428.91;;;11.48;100.00
76434;BME280;65265;53.200;6.080;2023-11-19T01:11:37;100448.53;;;11.48;100.00
76434;BME280;65265;53.200;6.080;2023-11-19T01:16:29;100451.03;;;11.46;100.00
76434;BME280;65265;53.200;6.080;2023-11-19T01:21:22;100443.53;;;11.52;100.00
76434;BME280;65265;53.200;6.080;2023-11-19T01:26:15;100427.03;;;11.43;100.00
76434;BME280;65265;53.200;6.080;2023-11-19T01:31:10;100438.59;;;11.57;100.00
76434;BME280;65265;53.200;6.080;2023-11-19T01:36:04;100411.63;;;11.41;100.00
76434;BME280;65265;53.200;6.080;2023-11-19T01:40:56;100419.31;;;11.41;100.00
76434;BME280;65265;53.200;6.080;2023-11-19T01:45:49;100419.34;;;11.43;100.00
76434;BME280;65265;53.200;6.080;2023-11-19T01:50:45;100383.75;;;11.22;100.00
76434;BME280;65265;53.200;6.080;2023-11-19T01:55:37;100408.81;;;11.32;100.00
76434;BME280;65265;53.200;6.080;2023-11-19T02:00:31;100412.03;;;11.27;100.00
76434;BME280;65265;53.200;6.080;2023-11-19T02:05:26;100407.78;;;11.27;100.00
76434;BME280;65265;53.200;6.080;2023-11-19T02:10:21;100415.38;;;11.24;100.00
76434;BME280;65265;53.200;6.080;2023-11-19T02:15:17;100424.41;;;11.12;100.00
76434;BME280;65265;53.200;6.080;2023-11-19T02:20:10;100431.28;;;11.14;100.00
76434;BME280;65265;53.200;6.080;2023-11-19T02:25:07;100429.81;;;11.22;100.00
76434;BME280;65265;53.200;6.080;2023-11-19T02:30:11;100421.94;;;11.16;100.00
76434;BME280;65265;53.200;6.080;2023-11-19T02:35:04;100431.56;;;11.23;100.00
76434;BME280;65265;53.200;6.080;2023-11-19T02:39:58;100417.66;;;11.15;100.00
76434;BME280;65265;53.200;6.080;2023-11-19T02:45:00;100420.19;;;11.14;100.00
76434;BME280;65265;53.200;6.080;2023-11-19T02:50:01;100409.06;;;11.13;100.00
76434;BME280;65265;53.200;6.080;2023-11-19T02:54:54;100413.34;;;11.14;100.00
76434;BME280;65265;53.200;6.080;2023-11-19T02:59:48;100410.16;;;11.21;100.00
76434;BME280;65265;53.200;6.080;2023-11-19T03:04:40;100395.66;;;11.22;100.00
76434;BME280;65265;53.200;6.080;2023-11-19T03:09:37;100361.81;;;11.02;100.00
76434;BME280;65265;53.200;6.080;2023-11-19T03:14:33;100391.44;;;11.22;100.00
76434;BME280;65265;53.200;6.080;2023-11-19T03:19:27;100382.28;;;11.30;100.00
76434;BME280;65265;53.200;6.080;2023-11-19T03:24:20;100393.72;;;11.41;100.00
76434;BME280;65265;53.200;6.080;2023-11-19T03:29:16;100388.72;;;11.46;100.00
76434;BME280;65265;53.200;6.080;2023-11-19T03:34:08;100376.66;;;11.42;100.00
76434;BME280;65265;53.200;6.080;2023-11-19T03:39:01;100364.66;;;11.39;100.00
76434;BME280;65265;53.200;6.080;2023-11-19T03:43:54;100385.59;;;11.56;100.00
76434;BME280;65265;53.200;6.080;2023-11-19T03:48:50;100361.59;;;11.52;100.00
76434;BME280;65265;53.200;6.080;2023-11-19T03:53:43;100382.03;;;11.51;100.00
76434;BME280;65265;53.200;6.080;2023-11-19T03:58:36;100378.50;;;11.46;100.00
76434;BME280;65265;53.200;6.080;2023-11-19T04:03:29;100347.91;;;11.22;100.00
76434;BME280;65265;53.200;6.080;2023-11-19T04:08:23;100383.34;;;11.37;100.00
76434;BME280;65265;53.200;6.080;2023-11-19T04:13:17;100352.75;;;11.13;100.00
76434;BME280;65265;53.200;6.080;2023-11-19T04:18:10;100391.34;;;11.19;100.00
76434;BME280;65265;53.200;6.080;2023-11-19T04:23:02;100387.22;;;11.24;100.00
76434;BME280;65265;53.200;6.080;2023-11-19T04:27:58;100374.41;;;11.24;100.00
76434;BME280;65265;53.200;6.080;2023-11-19T04:32:53;100367.44;;;11.19;100.00
76434;BME280;65265;53.200;6.080;2023-11-19T04:37:46;100378.72;;;11.25;100.00
76434;BME280;65265;53.200;6.080;2023-11-19T04:42:38;100380.31;;;11.22;100.00
76434;BME280;65265;53.200;6.080;2023-11-19T04:47:35;100391.50;;;11.24;100.00
76434;BME280;65265;53.200;6.080;2023-11-19T04:52:28;100369.72;;;11.10;100.00
76434;BME280;65265;53.200;6.080;2023-11-19T04:57:19;100373.22;;;11.12;100.00
76434;BME280;65265;53.200;6.080;2023-11-19T05:02:11;100390.59;;;11.23;100.00
76434;BME280;65265;53.200;6.080;2023-11-19T05:07:08;100387.13;;;11.21;100.00
76434;BME280;65265;53.200;6.080;2023-11-19T05:12:01;100365.41;;;11.09;100.00
76434;BME280;65265;53.200;6.080;2023-11-19T05:16:53;100390.69;;;11.26;100.00
76434;BME280;65265;53.200;6.080;2023-11-19T05:21:45;100400.03;;;11.24;100.00
76434;BME280;65265;53.200;6.080;2023-11-19T05:26:41;100398.38;;;11.26;100.00
76434;BME280;65265;53.200;6.080;2023-11-19T05:31:34;100394.19;;;11.28;100.00
76434;BME280;65265;53.200;6.080;2023-11-19T05:36:27;100397.38;;;11.21;100.00
76434;BME280;65265;53.200;6.080;2023-11-19T05:41:20;100387.81;;;11.16;100.00
76434;BME280;65265;53.200;6.080;2023-11-19T05:46:14;100393.91;;;11.19;100.00
76434;BME280;65265;53.200;6.080;2023-11-19T05:51:07;100398.66;;;11.07;100.00
76434;BME280;65265;53.200;6.080;2023-11-19T05:56:00;100407.03;;;11.03;100.00
76434;BME280;65265;53.200;6.080;2023-11-19T06:00:55;100415.75;;;11.08;100.00
76434;BME280;65265;53.200;6.080;2023-11-19T06:05:51;100408.78;;;11.04;100.00
76434;BME280;65265;53.200;6.080;2023-11-19T06:10:45;100406.09;;;11.00;100.00
76434;BME280;65265;53.200;6.080;2023-11-19T06:15:41;100412.00;;;10.99;100.00
76434;BME280;65265;53.200;6.080;2023-11-19T06:20:34;100413.72;;;10.98;100.00
76434;BME280;65265;53.200;6.080;2023-11-19T06:25:30;100379.81;;;10.77;100.00
76434;BME280;65265;53.200;6.080;2023-11-19T06:30:22;100408.47;;;10.94;100.00
76434;BME280;65265;53.200;6.080;2023-11-19T06:35:14;100411.03;;;10.94;100.00
76434;BME280;65265;53.200;6.080;2023-11-19T06:40:08;100417.03;;;10.94;100.00
76434;BME280;65265;53.200;6.080;2023-11-19T06:45:07;100413.44;;;10.89;100.00
76434;BME280;65265;53.200;6.080;2023-11-19T06:49:59;100421.31;;;10.95;100.00
76434;BME280;65265;53.200;6.080;2023-11-19T06:54:57;100433.72;;;10.83;100.00
76434;BME280;65265;53.200;6.080;2023-11-19T06:59:50;100427.63;;;10.80;100.00
76434;BME280;65265;53.200;6.080;2023-11-19T07:04:45;100416.34;;;10.73;100.00
76434;BME280;65265;53.200;6.080;2023-11-19T07:09:37;100416.44;;;10.76;100.00
76434;BME280;65265;53.200;6.080;2023-11-19T07:14:29;100417.09;;;10.71;100.00
76434;BME280;65265;53.200;6.080;2023-11-19T07:19:22;100425.22;;;10.84;100.00
76434;BME280;65265;53.200;6.080;2023-11-19T07:24:19;100426.75;;;10.79;100.00
76434;BME280;65265;53.200;6.080;2023-11-19T07:29:12;100422.31;;;10.74;100.00
76434;BME280;65265;53.200;6.080;2023-11-19T07:34:05;100427.84;;;10.61;100.00
76434;BME280;65265;53.200;6.080;2023-11-19T07:38:57;100437.34;;;10.65;100.00
76434;BME280;65265;53.200;6.080;2023-11-19T07:43:52;100454.72;;;10.75;100.00
76434;BME280;65265;53.200;6.080;2023-11-19T07:48:45;100460.72;;;10.75;100.00
76434;BME280;65265;53.200;6.080;2023-11-19T07:53:37;100455.63;;;10.75;100.00
76434;BME280;65265;53.200;6.080;2023-11-19T07:58:31;100469.41;;;10.80;100.00
76434;BME280;65265;53.200;6.080;2023-11-19T08:03:26;100477.88;;;10.78;100.00
76434;BME280;65265;53.200;6.080;2023-11-19T08:08:20;100447.03;;;10.73;100.00
76434;BME280;65265;53.200;6.080;2023-11-19T08:13:13;100446.81;;;10.67;100.00
76434;BME280;65265;53.200;6.080;2023-11-19T08:18:05;100474.66;;;10.83;100.00
76434;BME280;65265;53.200;6.080;2023-11-19T08:23:02;100476.47;;;10.87;100.00
76434;BME280;65265;53.200;6.080;2023-11-19T08:27:55;100477.38;;;10.89;100.00
76434;BME280;65265;53.200;6.080;2023-11-19T08:32:47;100479.84;;;10.86;100.00
76434;BME280;65265;53.200;6.080;2023-11-19T08:37:53;100476.47;;;10.87;100.00
76434;BME280;65265;53.200;6.080;2023-11-19T08:42:47;100481.50;;;10.84;100.00
76434;BME280;65265;53.200;6.080;2023-11-19T08:47:40;100478.88;;;10.83;100.00
76434;BME280;65265;53.200;6.080;2023-11-19T08:52:32;100489.19;;;10.86;100.00
76434;BME280;65265;53.200;6.080;2023-11-19T08:57:25;100491.81;;;10.87;100.00
76434;BME280;65265;53.200;6.080;2023-11-19T09:02:20;100498.00;;;10.94;100.00
76434;BME280;65265;53.200;6.080;2023-11-19T09:07:13;100493.94;;;11.00;100.00
76434;BME280;65265;53.200;6.080;2023-11-19T09:12:06;100487.97;;;11.26;100.00
76434;BME280;65265;53.200;6.080;2023-11-19T09:16:58;100491.72;;;11.37;100.00
76434;BME280;65265;53.200;6.080;2023-11-19T09:21:53;100498.97;;;11.50;100.00
76434;BME280;65265;53.200;6.080;2023-11-19T09:26:45;100501.72;;;11.56;100.00
76434;BME280;65265;53.200;6.080;2023-11-19T09:31:38;100504.44;;;11.61;100.00
76434;BME280;65265;53.200;6.080;2023-11-19T09:36:31;100495.25;;;11.67;100.00
76434;BME280;65265;53.200;6.080;2023-11-19T09:41:26;100488.38;;;11.66;100.00
76434;BME280;65265;53.200;6.080;2023-11-19T09:46:19;100485.63;;;11.60;100.00
76434;BME280;65265;53.200;6.080;2023-11-19T09:51:15;100493.59;;;11.69;100.00
76434;BME280;65265;53.200;6.080;2023-11-19T09:56:07;100498.84;;;11.74;100.00
76434;BME280;65265;53.200;6.080;2023-11-19T10:01:03;100495.47;;;11.75;100.00
76434;BME280;65265;53.200;6.080;2023-11-19T10:05:58;100473.84;;;11.65;100.00
76434;BME280;65265;53.200;6.080;2023-11-19T10:10:54;100489.22;;;11.65;100.00
76434;BME280;65265;53.200;6.080;2023-11-19T10:15:47;100488.91;;;11.56;100.00
76434;BME280;65265;53.200;6.080;2023-11-19T10:20:43;100486.59;;;11.64;100.00
76434;BME280;65265;53.200;6.080;2023-11-19T10:25:35;100498.09;;;11.76;100.00
76434;BME280;65265;53.200;6.080;2023-11-19T10:30:29;100493.03;;;11.79;100.00
76434;BME280;65265;53.200;6.080;2023-11-19T10:35:24;100483.75;;;11.83;100.00
76434;BME280;65265;53.200;6.080;2023-11-19T10:40:19;100492.53;;;11.91;100.00
76434;BME280;65265;53.200;6.080;2023-11-19T10:45:22;100491.91;;;11.99;100.00
76434;BME280;65265;53.200;6.080;2023-11-19T10:50:16;100490.13;;;11.96;100.00
76434;BME280;65265;53.200;6.080;2023-11-19T10:55:11;100492.66;;;11.95;100.00
76434;BME280;65265;53.200;6.080;2023-11-19T11:00:12;100498.03;;;12.04;100.00
76434;BME280;65265;53.200;6.080;2023-11-19T11:05:10;100496.16;;;11.98;100.00
76434;BME280;65265;53.200;6.080;2023-11-19T11:10:05;100484.94;;;11.93;100.00
76434;BME280;65265;53.200;6.080;2023-11-19T11:15:00;100485.00;;;11.96;100.00
76434;BME280;65265;53.200;6.080;2023-11-19T11:19:56;100480.75;;;11.97;100.00
76434;BME280;65265;53.200;6.080;2023-11-19T11:30:18;100480.72;;;11.95;100.00
76434;BME280;65265;53.200;6.080;2023-11-19T11:35:33;100481.81;;;11.74;100.00
76434;BME280;65265;53.200;6.080;2023-11-19T11:40:33;100476.25;;;11.61;100.00
76434;BME280;65265;53.200;6.080;2023-11-19T11:45:36;100469.16;;;11.52;100.00
76434;BME280;65265;53.200;6.080;2023-11-19T11:50:33;100474.47;;;11.58;100.00
76434;BME280;65265;53.200;6.080;2023-11-19T11:55:27;100468.09;;;11.74;100.00
76434;BME280;65265;53.200;6.080;2023-11-19T12:00:22;100455.09;;;11.95;100.00
76434;BME280;65265;53.200;6.080;2023-11-19T12:05:17;100453.81;;;12.11;100.00
76434;BME280;65265;53.200;6.080;2023-11-19T12:10:13;100447.09;;;12.16;100.00
76434;BME280;65265;53.200;6.080;2023-11-19T12:15:07;100453.19;;;12.19;100.00
76434;BME280;65265;53.200;6.080;2023-11-19T12:20:02;100457.41;;;12.17;100.00
76434;BME280;65265;53.200;6.080;2023-11-19T12:24:54;100466.56;;;12.09;100.00
76434;BME280;65265;53.200;6.080;2023-11-19T12:29:49;100450.28;;;12.07;100.00
76434;BME280;65265;53.200;6.080;2023-11-19T12:34:41;100453.75;;;12.09;100.00
76434;BME280;65265;53.200;6.080;2023-11-19T12:39:34;100456.19;;;12.05;100.00
76434;BME280;65265;53.200;6.080;2023-11-19T12:44:27;100446.13;;;12.11;100.00
76434;BME280;65265;53.200;6.080;2023-11-19T12:49:24;100448.59;;;12.08;100.00
76434;BME280;65265;53.200;6.080;2023-11-19T12:54:16;100447.00;;;12.11;100.00
76434;BME280;65265;53.200;6.080;2023-11-19T12:59:11;100440.16;;;12.12;100.00
76434;BME280;65265;53.200;6.080;2023-11-19T13:04:16;100456.56;;;12.18;100.00
76434;BME280;65265;53.200;6.080;2023-11-19T13:09:21;100459.91;;;12.16;100.00
76434;BME280;65265;53.200;6.080;2023-11-19T13:14:14;100464.19;;;12.15;100.00
76434;BME280;65265;53.200;6.080;2023-11-19T13:19:07;100452.72;;;12.01;100.00
76434;BME280;65265;53.200;6.080;2023-11-19T13:23:59;100461.22;;;12.00;100.00
76434;BME280;65265;53.200;6.080;2023-11-19T13:28:54;100453.47;;;11.99;100.00
76434;BME280;65265;53.200;6.080;2023-11-19T13:33:47;100463.53;;;11.92;100.00
76434;BME280;65265;53.200;6.080;2023-11-19T13:38:39;100455.63;;;11.84;100.00
76434;BME280;65265;53.200;6.080;2023-11-19T13:43:33;100452.59;;;11.68;100.00
76434;BME280;65265;53.200;6.080;2023-11-19T13:48:27;100465.19;;;11.62;100.00
76434;BME280;65265;53.200;6.080;2023-11-19T13:53:19;100451.94;;;11.48;100.00
76434;BME280;65265;53.200;6.080;2023-11-19T13:58:12;100456.81;;;11.39;100.00
76434;BME280;65265;53.200;6.080;2023-11-19T14:03:04;100448.88;;;11.32;100.00
76434;BME280;65265;53.200;6.080;2023-11-19T14:07:58;100442.91;;;11.31;100.00
76434;BME280;65265;53.200;6.080;2023-11-19T14:12:52;100447.38;;;11.38;100.00
76434;BME280;65265;53.200;6.080;2023-11-19T14:17:44;100441.94;;;11.28;100.00
76434;BME280;65265;53.200;6.080;2023-11-19T14:22:36;100442.38;;;11.41;100.00
76434;BME280;65265;53.200;6.080;2023-11-19T14:27:31;100455.16;;;11.41;100.00
76434;BME280;65265;53.200;6.080;2023-11-19T14:32:23;100448.31;;;11.40;100.00
76434;BME280;65265;53.200;6.080;2023-11-19T14:37:15;100440.38;;;11.33;100.00
76434;BME280;65265;53.200;6.080;2023-11-19T14:42:07;100448.84;;;11.30;100.00
76434;BME280;65265;53.200;6.080;2023-11-19T14:47:02;100443.72;;;11.30;100.00
76434;BME280;65265;53.200;6.080;2023-11-19T14:51:55;100449.69;;;11.31;100.00
76434;BME280;65265;53.200;6.080;2023-11-19T14:56:47;100452.25;;;11.29;100.00
76434;BME280;65265;53.200;6.080;2023-11-19T15:01:39;100440.28;;;11.30;100.00
76434;BME280;65265;53.200;6.080;2023-11-19T15:06:33;100447.25;;;11.34;100.00
76434;BME280;65265;53.200;6.080;2023-11-19T15:11:26;100445.38;;;11.28;100.00
76434;BME280;65265;53.200;6.080;2023-11-19T15:16:18;100436.69;;;11.23;100.00
76434;BME280;65265;53.200;6.080;2023-11-19T15:21:16;100448.94;;;11.33;100.00
76434;BME280;65265;53.200;6.080;2023-11-19T15:26:11;100464.09;;;11.27;100.00
76434;BME280;65265;53.200;6.080;2023-11-19T15:31:03;100437.03;;;11.07;100.00
76434;BME280;65265;53.200;6.080;2023-11-19T15:35:56;100454.97;;;11.09;100.00
76434;BME280;65265;53.200;6.080;2023-11-19T15:40:51;100452.84;;;10.94;100.00
76434;BME280;65265;53.200;6.080;2023-11-19T15:45:45;100450.84;;;10.86;100.00
76434;BME280;65265;53.200;6.080;2023-11-19T15:50:37;100451.25;;;10.73;100.00
76434;BME280;65265;53.200;6.080;2023-11-19T15:55:29;100444.19;;;10.66;100.00
76434;BME280;65265;53.200;6.080;2023-11-19T16:00:21;100451.84;;;10.64;100.00
76434;BME280;65265;53.200;6.080;2023-11-19T16:05:16;100455.16;;;10.62;100.00
76434;BME280;65265;53.200;6.080;2023-11-19T16:10:09;100455.06;;;10.59;100.00
76434;BME280;65265;53.200;6.080;2023-11-19T16:15:04;100447.34;;;10.57;100.00
76434;BME280;65265;53.200;6.080;2023-11-19T16:19:56;100448.97;;;10.55;100.00
76434;BME280;65265;53.200;6.080;2023-11-19T16:24:52;100461.84;;;10.58;100.00
76434;BME280;65265;53.200;6.080;2023-11-19T16:29:45;100456.81;;;10.60;100.00
76434;BME280;65265;53.200;6.080;2023-11-19T16:34:37;100453.34;;;10.59;100.00
76434;BME280;65265;53.200;6.080;2023-11-19T16:39:33;100411.88;;;10.41;100.00
76434;BME280;65265;53.200;6.080;2023-11-19T16:44:28;100446.56;;;10.60;100.00
76434;BME280;65265;53.200;6.080;2023-11-19T16:49:20;100444.69;;;10.54;100.00
76434;BME280;65265;53.200;6.080;2023-11-19T16:54:13;100438.44;;;10.46;100.00
76434;BME280;65265;53.200;6.080;2023-11-19T16:59:05;100447.91;;;10.49;100.00
76434;BME280;65265;53.200;6.080;2023-11-19T17:04:02;100428.88;;;10.41;100.00
76434;BME280;65265;53.200;6.080;2023-11-19T17:08:55;100450.41;;;10.47;100.00
76434;BME280;65265;53.200;6.080;2023-11-19T17:13:47;100438.44;;;10.46;100.00
76434;BME280;65265;53.200;6.080;2023-11-19T17:18:41;100444.59;;;10.51;100.00
76434;BME280;65265;53.200;6.080;2023-11-19T17:23:35;100439.16;;;10.42;100.00
76434;BME280;65265;53.200;6.080;2023-11-19T17:28:29;100432.41;;;10.44;100.00
76434;BME280;65265;53.200;6.080;2023-11-19T17:33:21;100397.38;;;10.17;100.00
76434;BME280;65265;53.200;6.080;2023-11-19T17:38:14;100400.25;;;10.26;100.00
76434;BME280;65265;53.200;6.080;2023-11-19T17:43:19;100424.50;;;10.37;100.00
76434;BME280;65265;53.200;6.080;2023-11-19T17:48:15;100396.72;;;10.22;100.00
76434;BME280;65265;53.200;6.080;2023-11-19T17:53:13;100379.25;;;10.09;100.00
76434;BME280;65265;53.200;6.080;2023-11-19T17:58:05;100400.97;;;10.22;100.00
76434;BME280;65265;53.200;6.080;2023-11-19T18:03:00;100420.84;;;10.30;100.00
76434;BME280;65265;53.200;6.080;2023-11-19T18:07:54;100414.94;;;10.31;100.00
76434;BME280;65265;53.200;6.080;2023-11-19T18:12:47;100418.25;;;10.29;100.00
76434;BME280;65265;53.200;6.080;2023-11-19T18:17:39;100410.66;;;10.32;100.00
76434;BME280;65265;53.200;6.080;2023-11-19T18:22:35;100388.22;;;10.22;100.00
76434;BME280;65265;53.200;6.080;2023-11-19T18:27:27;100401.16;;;10.28;100.00
76434;BME280;65265;53.200;6.080;2023-11-19T18:32:21;100402.84;;;10.27;100.00
76434;BME280;65265;53.200;6.080;2023-11-19T18:37:13;100385.53;;;10.19;100.00
76434;BME280;65265;53.200;6.080;2023-11-19T18:42:09;100371.91;;;10.18;100.00
76434;BME280;65265;53.200;6.080;2023-11-19T18:47:01;100384.16;;;10.28;100.00
76434;BME280;65265;53.200;6.080;2023-11-19T18:51:54;100372.19;;;10.27;100.00
76434;BME280;65265;53.200;6.080;2023-11-19T18:56:46;100375.56;;;10.26;100.00
76434;BME280;65265;53.200;6.080;2023-11-19T19:01:42;100351.41;;;10.17;100.00
76434;BME280;65265;53.200;6.080;2023-11-19T19:06:35;100365.53;;;10.32;100.00
76434;BME280;65265;53.200;6.080;2023-11-19T19:11:28;100343.53;;;10.36;100.00
76434;BME280;65265;53.200;6.080;2023-11-19T19:16:20;100316.84;;;10.28;100.00
76434;BME280;65265;53.200;6.080;2023-11-19T19:21:15;100334.22;;;10.38;100.00
76434;BME280;65265;53.200;6.080;2023-11-19T19:26:07;100335.19;;;10.41;100.00
76434;BME280;65265;53.200;6.080;2023-11-19T19:31:00;100318.09;;;10.40;100.00
76434;BME280;65265;53.200;6.080;2023-11-19T19:35:53;100309.50;;;10.38;100.00
76434;BME280;65265;53.200;6.080;2023-11-19T19:40:47;100322.03;;;10.57;100.00
76434;BME280;65265;53.200;6.080;2023-11-19T19:45:39;100327.44;;;10.66;100.00
76434;BME280;65265;53.200;6.080;2023-11-19T19:50:33;100324.16;;;10.70;100.00
76434;BME280;65265;53.200;6.080;2023-11-19T19:55:26;100315.63;;;10.70;100.00
76434;BME280;65265;53.200;6.080;2023-11-19T20:00:23;100319.03;;;10.70;100.00
76434;BME280;65265;53.200;6.080;2023-11-19T20:05:15;100308.94;;;10.73;100.00
76434;BME280;65265;53.200;6.080;2023-11-19T20:10:07;100311.72;;;10.81;100.00
76434;BME280;65265;53.200;6.080;2023-11-19T20:15:02;100310.06;;;10.83;100.00
76434;BME280;65265;53.200;6.080;2023-11-19T20:20:00;100286.81;;;10.75;100.00
76434;BME280;65265;53.200;6.080;2023-11-19T20:24:53;100296.38;;;10.81;100.00
76434;BME280;65265;53.200;6.080;2023-11-19T20:29:47;100295.69;;;10.88;100.00
76434;BME280;65265;53.200;6.080;2023-11-19T20:34:40;100285.53;;;10.89;100.00
76434;BME280;65265;53.200;6.080;2023-11-19T20:39:35;100274.53;;;10.92;100.00
76434;BME280;65265;53.200;6.080;2023-11-19T20:44:27;100274.59;;;10.95;100.00
76434;BME280;65265;53.200;6.080;2023-11-19T20:49:20;100283.31;;;11.01;100.00
76434;BME280;65265;53.200;6.080;2023-11-19T20:54:12;100318.53;;;11.10;100.00
76434;BME280;65265;53.200;6.080;2023-11-19T20:59:07;100328.41;;;10.98;100.00
76434;BME280;65265;53.200;6.080;2023-11-19T21:04:00;100338.97;;;10.80;100.00
76434;BME280;65265;53.200;6.080;2023-11-19T21:08:53;100340.16;;;10.63;100.00
76434;BME280;65265;53.200;6.080;2023-11-19T21:13:47;100351.88;;;10.57;100.00
76434;BME280;65265;53.200;6.080;2023-11-19T21:18:42;100353.25;;;10.47;100.00
76434;BME280;65265;53.200;6.080;2023-11-19T21:23:35;100355.72;;;10.44;100.00
76434;BME280;65265;53.200;6.080;2023-11-19T21:28:26;100365.72;;;10.38;100.00
76434;BME280;65265;53.200;6.080;2023-11-19T21:33:20;100347.59;;;10.31;100.00
76434;BME280;65265;53.200;6.080;2023-11-19T21:38:17;100349.09;;;10.24;100.00
76434;BME280;65265;53.200;6.080;2023-11-19T21:43:09;100320.41;;;10.06;100.00
76434;BME280;65265;53.200;6.080;2023-11-19T21:48:02;100349.88;;;10.22;100.00
76434;BME280;65265;53.200;6.080;2023-11-19T21:52:55;100354.19;;;10.24;100.00
76434;BME280;65265;53.200;6.080;2023-11-19T21:57:50;100348.84;;;10.17;100.00
76434;BME280;65265;53.200;6.080;2023-11-19T22:02:43;100328.16;;;10.09;100.00
76434;BME280;65265;53.200;6.080;2023-11-19T22:07:36;100352.78;;;10.32;100.00
76434;BME280;65265;53.200;6.080;2023-11-19T22:12:29;100365.47;;;10.29;100.00
76434;BME280;65265;53.200;6.080;2023-11-19T22:17:25;100359.47;;;10.29;100.00
76434;BME280;65265;53.200;6.080;2023-11-19T22:22:17;100334.66;;;10.26;100.00
76434;BME280;65265;53.200;6.080;2023-11-19T22:27:10;100350.22;;;10.59;100.00
76434;BME280;65265;53.200;6.080;2023-11-19T22:32:03;100316.63;;;10.48;100.00
76434;BME280;65265;53.200;6.080;2023-11-19T22:37:00;100340.31;;;10.69;100.00
76434;BME280;65265;53.200;6.080;2023-11-19T22:41:54;100351.22;;;10.90;100.00
76434;BME280;65265;53.200;6.080;2023-11-19T22:46:47;100343.81;;;10.99;100.00
76434;BME280;65265;53.200;6.080;2023-11-19T22:51:39;100339.84;;;11.09;100.00
76434;BME280;65265;53.200;6.080;2023-11-19T22:56:34;100320.78;;;10.99;100.00
76434;BME280;65265;53.200;6.080;2023-11-19T23:01:27;100343.50;;;11.17;100.00
76434;BME280;65265;53.200;6.080;2023-11-19T23:06:20;100346.25;;;11.23;100.00
76434;BME280;65265;53.200;6.080;2023-11-19T23:11:12;100333.19;;;11.15;100.00
76434;BME280;65265;53.200;6.080;2023-11-19T23:16:12;100343.69;;;11.23;100.00
76434;BME280;65265;53.200;6.080;2023-11-19T23:21:08;100357.38;;;11.25;100.00
76434;BME280;65265;53.200;6.080;2023-11-19T23:26:02;100369.44;;;11.29;100.00
76434;BME280;65265;53.200;6.080;2023-11-19T23:30:55;100362.59;;;11.28;100.00
76434;BME280;65265;53.200;6.080;2023-11-19T23:35:50;100367.66;;;11.26;100.00
76434;BME280;65265;53.200;6.080;2023-11-19T23:40:43;100351.38;;;11.24;100.00
76434;BME280;65265;53.200;6.080;2023-11-19T23:45:37;100365.91;;;11.25;100.00
76434;BME280;65265;53.200;6.080;2023-11-19T23:50:31;100366.81;;;11.26;100.00
76434;BME280;65265;53.200;6.080;2023-11-19T23:55:27;100377.88;;;11.26;100.00
